Terminal Aerodrome Forecast
Issued by NWS Newport/Morehead City, NC

Home | Current Version | Previous Version | Text Only | Print | Product List | Glossary On
Versions: 1 2 3 4 5 6 7 8 9 10 11 12 13 14 15 16 17 18 19 20
000
FTUS42 KMHX 210521
TAFEWN
TAF
KEWN 210521Z 2106/2206 05008KT 3SM BR OVC005
     FM210800 VRB04KT P6SM SCT007 BKN015
     FM211600 04005KT P6SM BKN020
     FM220100 10005KT P6SM BKN035=

USA.gov is the U.S. government's official web portal to all federal, state and local government web resources and services.